sensor_id;sensor_type;location;lat;lon;timestamp;pressure;altitude;pressure_sealevel;temperature;humidity
72486;BME280;60509;47.308;-122.428;2022-08-02T00:00:48;100353.87;;;23.19;21.95
72486;BME280;60509;47.308;-122.428;2022-08-02T00:03:13;100358.79;;;21.31;23.76
72486;BME280;60509;47.308;-122.428;2022-08-02T00:05:38;100356.14;;;20.22;25.09
72486;BME280;60509;47.308;-122.428;2022-08-02T00:08:04;100353.74;;;24.87;21.82
72486;BME280;60509;47.308;-122.428;2022-08-02T00:10:29;100349.97;;;23.86;21.19
72486;BME280;60509;47.308;-122.428;2022-08-02T00:12:54;100348.21;;;26.41;19.88
72486;BME280;60509;47.308;-122.428;2022-08-02T00:15:19;100346.74;;;24.25;20.03
72486;BME280;60509;47.308;-122.428;2022-08-02T00:17:44;100350.47;;;22.26;22.11
72486;BME280;60509;47.308;-122.428;2022-08-02T00:20:10;100349.37;;;21.82;23.01
72486;BME280;60509;47.308;-122.428;2022-08-02T00:22:35;100347.07;;;24.44;21.71
72486;BME280;60509;47.308;-122.428;2022-08-02T00:25:00;100346.06;;;23.35;21.67
72486;BME280;60509;47.308;-122.428;2022-08-02T00:27:25;100341.81;;;24.09;20.92
72486;BME280;60509;47.308;-122.428;2022-08-02T00:29:50;100333.11;;;24.21;20.66
72486;BME280;60509;47.308;-122.428;2022-08-02T00:32:15;100335.05;;;25.15;19.85
72486;BME280;60509;47.308;-122.428;2022-08-02T00:34:41;100340.52;;;26.23;18.67
72486;BME280;60509;47.308;-122.428;2022-08-02T00:37:06;100332.20;;;25.77;19.74
72486;BME280;60509;47.308;-122.428;2022-08-02T00:39:31;100334.28;;;26.03;19.90
72486;BME280;60509;47.308;-122.428;2022-08-02T00:41:57;100339.06;;;24.18;21.31
72486;BME280;60509;47.308;-122.428;2022-08-02T00:44:22;100335.71;;;22.09;22.32
72486;BME280;60509;47.308;-122.428;2022-08-02T00:46:47;100335.63;;;22.42;22.06
72486;BME280;60509;47.308;-122.428;2022-08-02T00:49:13;100334.91;;;21.94;22.22
72486;BME280;60509;47.308;-122.428;2022-08-02T00:51:38;100331.73;;;22.42;21.82
72486;BME280;60509;47.308;-122.428;2022-08-02T00:54:04;100330.57;;;20.52;24.26
72486;BME280;60509;47.308;-122.428;2022-08-02T00:56:28;100329.80;;;23.51;22.44
72486;BME280;60509;47.308;-122.428;2022-08-02T00:58:53;100335.65;;;22.57;23.10
72486;BME280;60509;47.308;-122.428;2022-08-02T01:01:18;100332.63;;;22.43;23.57
72486;BME280;60509;47.308;-122.428;2022-08-02T01:03:44;100325.83;;;24.76;21.17
72486;BME280;60509;47.308;-122.428;2022-08-02T01:06:09;100327.57;;;24.78;21.15
72486;BME280;60509;47.308;-122.428;2022-08-02T01:08:34;100322.42;;;25.56;20.44
72486;BME280;60509;47.308;-122.428;2022-08-02T01:11:00;100327.79;;;24.32;21.09
72486;BME280;60509;47.308;-122.428;2022-08-02T01:13:25;100331.96;;;23.14;21.86
72486;BME280;60509;47.308;-122.428;2022-08-02T01:15:54;100332.62;;;25.58;20.11
72486;BME280;60509;47.308;-122.428;2022-08-02T01:18:21;100337.00;;;23.81;20.66
72486;BME280;60509;47.308;-122.428;2022-08-02T01:20:56;100332.36;;;24.26;21.42
72486;BME280;60509;47.308;-122.428;2022-08-02T01:23:18;100331.01;;;24.38;21.07
72486;BME280;60509;47.308;-122.428;2022-08-02T01:25:55;100326.71;;;26.64;19.80
72486;BME280;60509;47.308;-122.428;2022-08-02T01:28:26;100326.29;;;28.48;17.97
72486;BME280;60509;47.308;-122.428;2022-08-02T01:30:22;100334.13;;;21.59;21.93
72486;BME280;60509;47.308;-122.428;2022-08-02T01:32:52;100325.73;;;27.66;18.87
72486;BME280;60509;47.308;-122.428;2022-08-02T01:35:19;100322.22;;;27.19;19.06
72486;BME280;60509;47.308;-122.428;2022-08-02T01:37:43;100325.96;;;21.73;22.89
72486;BME280;60509;47.308;-122.428;2022-08-02T01:40:05;100322.04;;;26.68;20.01
72486;BME280;60509;47.308;-122.428;2022-08-02T01:42:29;100324.54;;;26.71;20.09
72486;BME280;60509;47.308;-122.428;2022-08-02T01:44:54;100328.40;;;22.61;23.37
72486;BME280;60509;47.308;-122.428;2022-08-02T01:47:25;100328.71;;;24.75;21.93
72486;BME280;60509;47.308;-122.428;2022-08-02T01:49:47;100324.70;;;23.08;23.62
72486;BME280;60509;47.308;-122.428;2022-08-02T01:52:10;100323.48;;;25.95;19.90
72486;BME280;60509;47.308;-122.428;2022-08-02T01:54:36;100323.14;;;25.79;19.75
72486;BME280;60509;47.308;-122.428;2022-08-02T01:57:03;100326.80;;;23.92;20.74
72486;BME280;60509;47.308;-122.428;2022-08-02T01:59:27;100332.53;;;22.79;22.65
72486;BME280;60509;47.308;-122.428;2022-08-02T02:01:52;100327.29;;;21.74;23.43
72486;BME280;60509;47.308;-122.428;2022-08-02T02:04:17;100325.95;;;22.93;23.97
72486;BME280;60509;47.308;-122.428;2022-08-02T02:06:42;100320.37;;;25.43;21.02
72486;BME280;60509;47.308;-122.428;2022-08-02T02:09:07;100314.27;;;25.99;19.71
72486;BME280;60509;47.308;-122.428;2022-08-02T02:11:33;100321.37;;;24.51;20.21
72486;BME280;60509;47.308;-122.428;2022-08-02T02:14:01;100321.09;;;24.90;20.58
72486;BME280;60509;47.308;-122.428;2022-08-02T02:16:24;100316.81;;;22.99;22.08
72486;BME280;60509;47.308;-122.428;2022-08-02T02:18:50;100318.91;;;22.41;23.02
72486;BME280;60509;47.308;-122.428;2022-08-02T02:21:14;100323.51;;;20.54;25.27
72486;BME280;60509;47.308;-122.428;2022-08-02T02:23:40;100321.09;;;21.83;24.87
72486;BME280;60509;47.308;-122.428;2022-08-02T02:26:05;100325.49;;;20.36;26.11
72486;BME280;60509;47.308;-122.428;2022-08-02T02:28:31;100328.58;;;20.97;24.80
72486;BME280;60509;47.308;-122.428;2022-08-02T02:31:01;100324.43;;;23.36;22.87
72486;BME280;60509;47.308;-122.428;2022-08-02T02:33:22;100330.59;;;20.83;25.03
72486;BME280;60509;47.308;-122.428;2022-08-02T02:35:49;100328.54;;;23.10;22.79
72486;BME280;60509;47.308;-122.428;2022-08-02T02:38:14;100334.64;;;22.53;23.31
72486;BME280;60509;47.308;-122.428;2022-08-02T02:40:38;100330.14;;;22.16;22.78
72486;BME280;60509;47.308;-122.428;2022-08-02T02:43:04;100330.17;;;23.42;21.78
72486;BME280;60509;47.308;-122.428;2022-08-02T02:45:29;100339.62;;;19.06;25.41
72486;BME280;60509;47.308;-122.428;2022-08-02T02:47:55;100343.32;;;19.56;26.36
72486;BME280;60509;47.308;-122.428;2022-08-02T02:50:21;100335.80;;;21.56;24.40
72486;BME280;60509;47.308;-122.428;2022-08-02T02:52:46;100340.66;;;20.01;25.19
72486;BME280;60509;47.308;-122.428;2022-08-02T02:55:11;100344.04;;;18.95;26.50
72486;BME280;60509;47.308;-122.428;2022-08-02T02:57:37;100344.63;;;16.58;28.26
72486;BME280;60509;47.308;-122.428;2022-08-02T03:00:03;100343.56;;;19.12;27.31
72486;BME280;60509;47.308;-122.428;2022-08-02T03:02:28;100346.53;;;18.74;26.73
72486;BME280;60509;47.308;-122.428;2022-08-02T03:04:54;100345.95;;;15.49;29.24
72486;BME280;60509;47.308;-122.428;2022-08-02T03:07:19;100346.70;;;15.89;29.15
72486;BME280;60509;47.308;-122.428;2022-08-02T03:09:44;100350.35;;;14.96;30.68
72486;BME280;60509;47.308;-122.428;2022-08-02T03:12:10;100352.57;;;15.28;31.38
72486;BME280;60509;47.308;-122.428;2022-08-02T03:14:40;100352.38;;;14.07;33.74
72486;BME280;60509;47.308;-122.428;2022-08-02T03:17:01;100357.77;;;13.37;35.27
72486;BME280;60509;47.308;-122.428;2022-08-02T03:19:27;100358.11;;;14.02;34.92
72486;BME280;60509;47.308;-122.428;2022-08-02T03:21:52;100360.39;;;14.78;34.91
72486;BME280;60509;47.308;-122.428;2022-08-02T03:24:18;100361.33;;;14.64;34.15
72486;BME280;60509;47.308;-122.428;2022-08-02T03:26:44;100362.69;;;13.31;37.33
72486;BME280;60509;47.308;-122.428;2022-08-02T03:29:10;100365.06;;;13.94;36.87
72486;BME280;60509;47.308;-122.428;2022-08-02T03:31:36;100369.28;;;13.28;37.04
72486;BME280;60509;47.308;-122.428;2022-08-02T03:34:02;100368.55;;;11.60;40.35
72486;BME280;60509;47.308;-122.428;2022-08-02T03:36:29;100373.14;;;11.27;41.61
72486;BME280;60509;47.308;-122.428;2022-08-02T03:38:54;100374.54;;;11.20;42.78
72486;BME280;60509;47.308;-122.428;2022-08-02T03:41:21;100372.89;;;10.39;43.72
72486;BME280;60509;47.308;-122.428;2022-08-02T03:43:45;100375.02;;;10.71;42.31
72486;BME280;60509;47.308;-122.428;2022-08-02T03:46:12;100380.76;;;10.77;42.22
72486;BME280;60509;47.308;-122.428;2022-08-02T03:48:36;100388.44;;;10.13;45.01
72486;BME280;60509;47.308;-122.428;2022-08-02T03:51:02;100386.59;;;10.60;44.53
72486;BME280;60509;47.308;-122.428;2022-08-02T03:53:28;100381.84;;;10.75;43.81
72486;BME280;60509;47.308;-122.428;2022-08-02T03:55:53;100392.26;;;9.58;46.71
72486;BME280;60509;47.308;-122.428;2022-08-02T03:58:21;100392.64;;;9.72;46.57
72486;BME280;60509;47.308;-122.428;2022-08-02T04:00:45;100395.37;;;9.69;46.95
72486;BME280;60509;47.308;-122.428;2022-08-02T04:03:11;100401.64;;;9.71;46.66
72486;BME280;60509;47.308;-122.428;2022-08-02T04:05:37;100405.84;;;10.07;47.29
72486;BME280;60509;47.308;-122.428;2022-08-02T04:08:02;100417.41;;;7.91;51.78
72486;BME280;60509;47.308;-122.428;2022-08-02T04:10:28;100415.95;;;8.62;52.59
72486;BME280;60509;47.308;-122.428;2022-08-02T04:12:54;100421.71;;;9.04;52.69
72486;BME280;60509;47.308;-122.428;2022-08-02T04:15:20;100423.35;;;7.86;52.70
72486;BME280;60509;47.308;-122.428;2022-08-02T04:17:50;100419.85;;;7.65;53.33
72486;BME280;60509;47.308;-122.428;2022-08-02T04:20:16;100422.20;;;7.12;56.72
72486;BME280;60509;47.308;-122.428;2022-08-02T04:22:42;100417.31;;;7.71;54.01
72486;BME280;60509;47.308;-122.428;2022-08-02T04:25:06;100415.77;;;8.02;53.25
72486;BME280;60509;47.308;-122.428;2022-08-02T04:27:30;100420.28;;;7.86;54.04
72486;BME280;60509;47.308;-122.428;2022-08-02T04:29:57;100418.23;;;8.41;52.92
72486;BME280;60509;47.308;-122.428;2022-08-02T04:32:21;100421.94;;;8.25;52.92
72486;BME280;60509;47.308;-122.428;2022-08-02T04:34:47;100430.20;;;8.77;51.29
72486;BME280;60509;47.308;-122.428;2022-08-02T04:37:13;100436.11;;;8.33;51.05
72486;BME280;60509;47.308;-122.428;2022-08-02T04:39:40;100444.49;;;7.95;54.54
72486;BME280;60509;47.308;-122.428;2022-08-02T04:42:06;100449.21;;;7.76;55.08
72486;BME280;60509;47.308;-122.428;2022-08-02T04:44:31;100448.54;;;8.33;54.00
72486;BME280;60509;47.308;-122.428;2022-08-02T04:46:59;100450.94;;;7.39;55.81
72486;BME280;60509;47.308;-122.428;2022-08-02T04:49:23;100456.15;;;7.70;55.09
72486;BME280;60509;47.308;-122.428;2022-08-02T04:51:49;100454.84;;;7.91;53.00
72486;BME280;60509;47.308;-122.428;2022-08-02T04:54:15;100458.12;;;7.75;54.21
72486;BME280;60509;47.308;-122.428;2022-08-02T04:56:41;100459.46;;;7.57;53.95
72486;BME280;60509;47.308;-122.428;2022-08-02T04:59:07;100468.03;;;6.88;58.26
72486;BME280;60509;47.308;-122.428;2022-08-02T05:01:32;100474.11;;;7.10;57.32
72486;BME280;60509;47.308;-122.428;2022-08-02T05:03:59;100469.97;;;6.54;59.13
72486;BME280;60509;47.308;-122.428;2022-08-02T05:06:24;100473.59;;;6.26;60.04
72486;BME280;60509;47.308;-122.428;2022-08-02T05:08:50;100473.54;;;6.75;58.39
72486;BME280;60509;47.308;-122.428;2022-08-02T05:11:16;100478.50;;;7.04;56.79
72486;BME280;60509;47.308;-122.428;2022-08-02T05:13:42;100483.35;;;5.45;59.64
72486;BME280;60509;47.308;-122.428;2022-08-02T05:16:08;100487.27;;;6.50;59.40
72486;BME280;60509;47.308;-122.428;2022-08-02T05:18:35;100479.89;;;6.81;58.53
72486;BME280;60509;47.308;-122.428;2022-08-02T05:21:00;100480.16;;;6.71;58.80
72486;BME280;60509;47.308;-122.428;2022-08-02T05:23:27;100482.52;;;6.85;58.14
72486;BME280;60509;47.308;-122.428;2022-08-02T05:25:52;100481.17;;;6.75;59.29
72486;BME280;60509;47.308;-122.428;2022-08-02T05:28:18;100482.03;;;5.69;61.64
72486;BME280;60509;47.308;-122.428;2022-08-02T05:30:44;100478.21;;;6.20;60.38
72486;BME280;60509;47.308;-122.428;2022-08-02T05:33:10;100478.40;;;6.25;60.97
72486;BME280;60509;47.308;-122.428;2022-08-02T05:35:36;100482.70;;;5.96;63.06
72486;BME280;60509;47.308;-122.428;2022-08-02T05:38:03;100481.94;;;6.18;63.07
72486;BME280;60509;47.308;-122.428;2022-08-02T05:40:28;100479.31;;;6.03;62.40
72486;BME280;60509;47.308;-122.428;2022-08-02T05:42:54;100483.00;;;5.66;62.31
72486;BME280;60509;47.308;-122.428;2022-08-02T05:45:20;100486.18;;;6.24;60.36
72486;BME280;60509;47.308;-122.428;2022-08-02T05:47:46;100494.49;;;6.17;61.43
72486;BME280;60509;47.308;-122.428;2022-08-02T05:50:12;100491.23;;;6.52;59.50
72486;BME280;60509;47.308;-122.428;2022-08-02T05:52:45;100485.55;;;5.68;60.36
72486;BME280;60509;47.308;-122.428;2022-08-02T05:55:06;100482.31;;;6.17;61.91
72486;BME280;60509;47.308;-122.428;2022-08-02T05:57:39;100487.32;;;6.06;62.19
72486;BME280;60509;47.308;-122.428;2022-08-02T06:00:03;100488.11;;;6.89;60.35
72486;BME280;60509;47.308;-122.428;2022-08-02T06:02:29;100490.84;;;5.35;62.50
72486;BME280;60509;47.308;-122.428;2022-08-02T06:04:53;100497.83;;;6.33;60.73
72486;BME280;60509;47.308;-122.428;2022-08-02T06:07:12;100497.21;;;6.05;63.46
72486;BME280;60509;47.308;-122.428;2022-08-02T06:09:38;100502.11;;;6.09;63.95
72486;BME280;60509;47.308;-122.428;2022-08-02T06:12:03;100505.27;;;5.49;63.28
72486;BME280;60509;47.308;-122.428;2022-08-02T06:14:30;100508.40;;;5.88;63.91
72486;BME280;60509;47.308;-122.428;2022-08-02T06:16:55;100515.22;;;6.41;62.34
72486;BME280;60509;47.308;-122.428;2022-08-02T06:19:21;100516.75;;;5.55;62.33
72486;BME280;60509;47.308;-122.428;2022-08-02T06:21:48;100513.32;;;6.46;60.66
72486;BME280;60509;47.308;-122.428;2022-08-02T06:24:13;100511.75;;;6.44;60.85
72486;BME280;60509;47.308;-122.428;2022-08-02T06:26:38;100518.59;;;6.42;61.52
72486;BME280;60509;47.308;-122.428;2022-08-02T06:29:04;100521.74;;;6.12;62.43
72486;BME280;60509;47.308;-122.428;2022-08-02T06:31:30;100524.95;;;5.80;60.44
72486;BME280;60509;47.308;-122.428;2022-08-02T06:33:57;100528.14;;;5.89;59.86
72486;BME280;60509;47.308;-122.428;2022-08-02T06:36:29;100534.24;;;6.12;59.70
72486;BME280;60509;47.308;-122.428;2022-08-02T06:38:54;100536.21;;;6.17;58.90
72486;BME280;60509;47.308;-122.428;2022-08-02T06:41:15;100534.23;;;6.90;58.13
72486;BME280;60509;47.308;-122.428;2022-08-02T06:43:45;100537.92;;;6.31;59.34
72486;BME280;60509;47.308;-122.428;2022-08-02T06:46:05;100539.27;;;5.71;61.98
72486;BME280;60509;47.308;-122.428;2022-08-02T06:48:30;100538.78;;;5.26;63.50
72486;BME280;60509;47.308;-122.428;2022-08-02T06:50:55;100539.03;;;6.26;61.62
72486;BME280;60509;47.308;-122.428;2022-08-02T06:53:21;100541.81;;;5.92;63.75
72486;BME280;60509;47.308;-122.428;2022-08-02T06:55:47;100544.54;;;5.74;61.88
72486;BME280;60509;47.308;-122.428;2022-08-02T06:58:14;100553.07;;;5.14;62.56
72486;BME280;60509;47.308;-122.428;2022-08-02T07:00:40;100555.41;;;5.30;61.94
72486;BME280;60509;47.308;-122.428;2022-08-02T07:03:06;100555.58;;;5.88;61.91
72486;BME280;60509;47.308;-122.428;2022-08-02T07:05:31;100560.84;;;5.97;62.24
72486;BME280;60509;47.308;-122.428;2022-08-02T07:07:58;100561.27;;;6.55;60.50
72486;BME280;60509;47.308;-122.428;2022-08-02T07:10:24;100564.53;;;6.02;60.53
72486;BME280;60509;47.308;-122.428;2022-08-02T07:12:50;100567.33;;;6.68;59.46
72486;BME280;60509;47.308;-122.428;2022-08-02T07:15:15;100571.66;;;6.48;59.63
72486;BME280;60509;47.308;-122.428;2022-08-02T07:17:41;100575.55;;;6.26;58.92
72486;BME280;60509;47.308;-122.428;2022-08-02T07:20:08;100573.34;;;6.79;57.21
72486;BME280;60509;47.308;-122.428;2022-08-02T07:22:33;100576.34;;;6.76;58.71
72486;BME280;60509;47.308;-122.428;2022-08-02T07:25:01;100574.77;;;6.32;58.20
72486;BME280;60509;47.308;-122.428;2022-08-02T07:27:25;100572.05;;;6.50;57.51
72486;BME280;60509;47.308;-122.428;2022-08-02T07:29:51;100574.96;;;7.61;55.91
72486;BME280;60509;47.308;-122.428;2022-08-02T07:32:16;100579.51;;;6.39;59.40
72486;BME280;60509;47.308;-122.428;2022-08-02T07:34:42;100581.87;;;6.10;59.91
72486;BME280;60509;47.308;-122.428;2022-08-02T07:37:08;100583.90;;;6.82;58.53
72486;BME280;60509;47.308;-122.428;2022-08-02T07:39:34;100584.17;;;6.84;58.95
72486;BME280;60509;47.308;-122.428;2022-08-02T07:42:00;100583.28;;;6.45;59.46
72486;BME280;60509;47.308;-122.428;2022-08-02T07:44:26;100583.55;;;6.59;60.75
72486;BME280;60509;47.308;-122.428;2022-08-02T07:46:52;100586.71;;;6.84;59.58
72486;BME280;60509;47.308;-122.428;2022-08-02T07:49:18;100595.19;;;6.03;62.35
72486;BME280;60509;47.308;-122.428;2022-08-02T07:51:44;100595.91;;;6.01;61.45
72486;BME280;60509;47.308;-122.428;2022-08-02T07:54:09;100597.15;;;5.98;62.74
72486;BME280;60509;47.308;-122.428;2022-08-02T07:56:34;100597.16;;;6.19;61.27
72486;BME280;60509;47.308;-122.428;2022-08-02T07:59:00;100596.19;;;6.21;61.38
72486;BME280;60509;47.308;-122.428;2022-08-02T08:01:26;100597.56;;;5.87;62.88
72486;BME280;60509;47.308;-122.428;2022-08-02T08:03:52;100602.06;;;6.04;60.95
72486;BME280;60509;47.308;-122.428;2022-08-02T08:06:18;100600.92;;;5.02;65.57
72486;BME280;60509;47.308;-122.428;2022-08-02T08:08:44;100604.91;;;5.00;65.95
72486;BME280;60509;47.308;-122.428;2022-08-02T08:11:09;100610.35;;;6.17;62.58
72486;BME280;60509;47.308;-122.428;2022-08-02T08:13:34;100610.92;;;6.26;62.63
72486;BME280;60509;47.308;-122.428;2022-08-02T08:15:59;100614.04;;;6.25;60.55
72486;BME280;60509;47.308;-122.428;2022-08-02T08:18:24;100609.73;;;6.44;60.50
72486;BME280;60509;47.308;-122.428;2022-08-02T08:20:49;100609.09;;;4.97;64.35
72486;BME280;60509;47.308;-122.428;2022-08-02T08:23:14;100612.98;;;5.92;62.70
72486;BME280;60509;47.308;-122.428;2022-08-02T08:25:39;100612.85;;;5.48;63.46
72486;BME280;60509;47.308;-122.428;2022-08-02T08:28:04;100619.51;;;4.88;64.97
72486;BME280;60509;47.308;-122.428;2022-08-02T08:30:29;100617.30;;;5.39;63.80
72486;BME280;60509;47.308;-122.428;2022-08-02T08:32:54;100616.42;;;4.89;64.56
72486;BME280;60509;47.308;-122.428;2022-08-02T08:35:19;100614.90;;;5.30;65.26
72486;BME280;60509;47.308;-122.428;2022-08-02T08:37:45;100616.91;;;5.63;63.22
72486;BME280;60509;47.308;-122.428;2022-08-02T08:40:12;100621.41;;;6.49;60.41
72486;BME280;60509;47.308;-122.428;2022-08-02T08:42:38;100621.54;;;5.97;61.50
72486;BME280;60509;47.308;-122.428;2022-08-02T08:45:05;100618.49;;;5.80;61.15
72486;BME280;60509;47.308;-122.428;2022-08-02T08:47:34;100616.86;;;5.38;61.71
72486;BME280;60509;47.308;-122.428;2022-08-02T08:49:56;100614.50;;;6.05;60.40
72486;BME280;60509;47.308;-122.428;2022-08-02T08:52:21;100613.83;;;6.74;59.25
72486;BME280;60509;47.308;-122.428;2022-08-02T08:54:46;100616.21;;;4.67;63.09
72486;BME280;60509;47.308;-122.428;2022-08-02T08:57:10;100614.17;;;4.77;64.71
72486;BME280;60509;47.308;-122.428;2022-08-02T08:59:34;100616.11;;;4.76;63.76
72486;BME280;60509;47.308;-122.428;2022-08-02T09:02:00;100613.84;;;5.19;63.76
72486;BME280;60509;47.308;-122.428;2022-08-02T09:04:24;100612.65;;;4.52;65.85
72486;BME280;60509;47.308;-122.428;2022-08-02T09:06:49;100614.29;;;4.46;65.38
72486;BME280;60509;47.308;-122.428;2022-08-02T09:09:14;100615.00;;;4.22;66.35
72486;BME280;60509;47.308;-122.428;2022-08-02T09:11:39;100613.54;;;4.29;66.77
72486;BME280;60509;47.308;-122.428;2022-08-02T09:14:05;100615.00;;;4.46;65.11
72486;BME280;60509;47.308;-122.428;2022-08-02T09:16:32;100616.80;;;4.76;66.43
72486;BME280;60509;47.308;-122.428;2022-08-02T09:18:55;100623.21;;;4.03;66.63
72486;BME280;60509;47.308;-122.428;2022-08-02T09:21:20;100628.24;;;4.39;67.56
72486;BME280;60509;47.308;-122.428;2022-08-02T09:23:47;100629.07;;;4.01;66.87
72486;BME280;60509;47.308;-122.428;2022-08-02T09:26:11;100633.20;;;3.46;69.93
72486;BME280;60509;47.308;-122.428;2022-08-02T09:28:36;100632.42;;;5.05;66.85
72486;BME280;60509;47.308;-122.428;2022-08-02T09:31:05;100637.75;;;4.49;65.72
72486;BME280;60509;47.308;-122.428;2022-08-02T09:33:26;100639.88;;;4.33;63.35
72486;BME280;60509;47.308;-122.428;2022-08-02T09:35:59;100646.85;;;4.70;62.92
72486;BME280;60509;47.308;-122.428;2022-08-02T09:38:15;100647.30;;;3.39;67.14
72486;BME280;60509;47.308;-122.428;2022-08-02T09:40:41;100651.49;;;3.91;67.77
72486;BME280;60509;47.308;-122.428;2022-08-02T09:43:05;100643.25;;;3.47;67.87
72486;BME280;60509;47.308;-122.428;2022-08-02T09:45:31;100648.30;;;3.08;70.05
72486;BME280;60509;47.308;-122.428;2022-08-02T09:47:55;100650.11;;;3.81;67.56
72486;BME280;60509;47.308;-122.428;2022-08-02T09:50:20;100651.08;;;4.86;64.45
72486;BME280;60509;47.308;-122.428;2022-08-02T09:52:45;100655.15;;;4.64;64.50
72486;BME280;60509;47.308;-122.428;2022-08-02T09:55:11;100656.24;;;4.48;63.19
72486;BME280;60509;47.308;-122.428;2022-08-02T09:57:36;100656.89;;;4.78;64.60
72486;BME280;60509;47.308;-122.428;2022-08-02T10:00:04;100660.55;;;4.54;63.92
72486;BME280;60509;47.308;-122.428;2022-08-02T10:02:26;100658.99;;;4.52;64.72
72486;BME280;60509;47.308;-122.428;2022-08-02T10:04:51;100659.87;;;4.65;64.48
72486;BME280;60509;47.308;-122.428;2022-08-02T10:07:16;100660.78;;;4.34;63.62
72486;BME280;60509;47.308;-122.428;2022-08-02T10:09:42;100659.71;;;4.71;63.73
72486;BME280;60509;47.308;-122.428;2022-08-02T10:12:07;100660.94;;;5.34;61.36
72486;BME280;60509;47.308;-122.428;2022-08-02T10:14:33;100661.58;;;4.05;63.18
72486;BME280;60509;47.308;-122.428;2022-08-02T10:16:57;100668.80;;;4.20;65.16
72486;BME280;60509;47.308;-122.428;2022-08-02T10:19:21;100674.13;;;4.05;65.72
72486;BME280;60509;47.308;-122.428;2022-08-02T10:21:50;100673.96;;;3.93;66.37
72486;BME280;60509;47.308;-122.428;2022-08-02T10:24:13;100672.93;;;4.11;66.25
72486;BME280;60509;47.308;-122.428;2022-08-02T10:26:39;100674.93;;;4.26;65.35
72486;BME280;60509;47.308;-122.428;2022-08-02T10:29:02;100676.57;;;3.60;65.96
72486;BME280;60509;47.308;-122.428;2022-08-02T10:31:32;100678.85;;;5.39;62.13
72486;BME280;60509;47.308;-122.428;2022-08-02T10:33:53;100681.06;;;4.72;62.80
72486;BME280;60509;47.308;-122.428;2022-08-02T10:36:18;100683.14;;;5.50;61.19
72486;BME280;60509;47.308;-122.428;2022-08-02T10:38:43;100681.25;;;5.21;62.20
72486;BME280;60509;47.308;-122.428;2022-08-02T10:41:07;100685.37;;;4.19;62.72
72486;BME280;60509;47.308;-122.428;2022-08-02T10:43:48;100684.72;;;4.90;60.93
72486;BME280;60509;47.308;-122.428;2022-08-02T10:46:22;100683.55;;;5.93;59.95
72486;BME280;60509;47.308;-122.428;2022-08-02T10:48:23;100685.52;;;4.90;61.51
72486;BME280;60509;47.308;-122.428;2022-08-02T10:50:55;100689.93;;;4.58;62.90
72486;BME280;60509;47.308;-122.428;2022-08-02T10:53:21;100690.63;;;5.26;60.86
72486;BME280;60509;47.308;-122.428;2022-08-02T10:55:44;100692.88;;;4.26;62.44
72486;BME280;60509;47.308;-122.428;2022-08-02T10:58:16;100693.29;;;3.19;64.46
72486;BME280;60509;47.308;-122.428;2022-08-02T11:00:28;100686.14;;;5.22;61.55
72486;BME280;60509;47.308;-122.428;2022-08-02T11:02:53;100685.88;;;4.21;63.27
72486;BME280;60509;47.308;-122.428;2022-08-02T11:05:27;100687.99;;;3.59;66.37
72486;BME280;60509;47.308;-122.428;2022-08-02T11:07:45;100685.88;;;4.68;62.58
72486;BME280;60509;47.308;-122.428;2022-08-02T11:10:40;100687.66;;;4.95;61.25
72486;BME280;60509;47.308;-122.428;2022-08-02T11:12:58;100688.87;;;3.53;64.12
72486;BME280;60509;47.308;-122.428;2022-08-02T11:14:59;100689.38;;;3.81;64.09
72486;BME280;60509;47.308;-122.428;2022-08-02T11:17:23;100686.96;;;4.49;62.17
72486;BME280;60509;47.308;-122.428;2022-08-02T11:20:21;100691.56;;;4.79;61.59
72486;BME280;60509;47.308;-122.428;2022-08-02T11:22:14;100695.42;;;4.82;61.46
72486;BME280;60509;47.308;-122.428;2022-08-02T11:24:39;100698.29;;;4.79;61.65
72486;BME280;60509;47.308;-122.428;2022-08-02T11:27:05;100700.57;;;4.70;61.14
72486;BME280;60509;47.308;-122.428;2022-08-02T11:29:36;100700.88;;;4.75;61.66
72486;BME280;60509;47.308;-122.428;2022-08-02T11:31:54;100700.85;;;4.98;61.72
72486;BME280;60509;47.308;-122.428;2022-08-02T11:34:25;100709.35;;;4.66;62.83
72486;BME280;60509;47.308;-122.428;2022-08-02T11:36:47;100711.82;;;4.59;61.97
72486;BME280;60509;47.308;-122.428;2022-08-02T11:39:12;100708.34;;;4.33;62.58
72486;BME280;60509;47.308;-122.428;2022-08-02T11:41:37;100712.53;;;4.91;61.59
72486;BME280;60509;47.308;-122.428;2022-08-02T11:44:03;100714.27;;;4.98;60.21
72486;BME280;60509;47.308;-122.428;2022-08-02T11:46:28;100715.94;;;4.11;63.04
72486;BME280;60509;47.308;-122.428;2022-08-02T11:48:53;100718.85;;;4.23;63.85
72486;BME280;60509;47.308;-122.428;2022-08-02T11:51:18;100721.32;;;5.03;61.01
72486;BME280;60509;47.308;-122.428;2022-08-02T11:53:46;100719.67;;;4.46;61.70
72486;BME280;60509;47.308;-122.428;2022-08-02T11:56:09;100725.54;;;5.15;60.51
72486;BME280;60509;47.308;-122.428;2022-08-02T11:58:33;100727.22;;;5.51;59.89
72486;BME280;60509;47.308;-122.428;2022-08-02T12:00:58;100727.12;;;4.63;60.80
72486;BME280;60509;47.308;-122.428;2022-08-02T12:03:24;100725.69;;;5.34;59.70
72486;BME280;60509;47.308;-122.428;2022-08-02T12:05:49;100725.23;;;5.25;59.57
72486;BME280;60509;47.308;-122.428;2022-08-02T12:08:14;100727.16;;;4.90;59.50
72486;BME280;60509;47.308;-122.428;2022-08-02T12:10:47;100730.20;;;4.77;61.85
72486;BME280;60509;47.308;-122.428;2022-08-02T12:13:04;100729.96;;;4.64;60.68
72486;BME280;60509;47.308;-122.428;2022-08-02T12:15:32;100734.63;;;3.63;62.58
72486;BME280;60509;47.308;-122.428;2022-08-02T12:17:54;100737.83;;;4.07;60.23